sensor_id;sensor_type;location;lat;lon;timestamp;P1;durP1;ratioP1;P2;durP2;ratioP2
53654;SDS011;39558;52.028;8.536;2023-02-28T00:02:25;1.38;;;0.77;;
53654;SDS011;39558;52.028;8.536;2023-02-28T00:04:51;2.40;;;1.08;;
53654;SDS011;39558;52.028;8.536;2023-02-28T00:07:25;2.05;;;0.95;;
53654;SDS011;39558;52.028;8.536;2023-02-28T00:09:51;3.35;;;1.58;;
53654;SDS011;39558;52.028;8.536;2023-02-28T00:12:17;2.47;;;1.30;;
53654;SDS011;39558;52.028;8.536;2023-02-28T00:14:43;2.65;;;1.00;;
53654;SDS011;39558;52.028;8.536;2023-02-28T00:17:09;1.90;;;0.75;;
53654;SDS011;39558;52.028;8.536;2023-02-28T00:19:35;1.92;;;0.88;;
53654;SDS011;39558;52.028;8.536;2023-02-28T00:22:01;2.35;;;1.10;;
53654;SDS011;39558;52.028;8.536;2023-02-28T00:24:26;2.25;;;1.20;;
53654;SDS011;39558;52.028;8.536;2023-02-28T00:26:52;2.58;;;1.20;;
53654;SDS011;39558;52.028;8.536;2023-02-28T00:29:18;1.95;;;0.90;;
53654;SDS011;39558;52.028;8.536;2023-02-28T00:31:44;2.10;;;0.82;;
53654;SDS011;39558;52.028;8.536;2023-02-28T00:34:10;2.40;;;1.20;;
53654;SDS011;39558;52.028;8.536;2023-02-28T00:36:36;2.15;;;0.80;;
53654;SDS011;39558;52.028;8.536;2023-02-28T00:39:02;2.38;;;1.17;;
53654;SDS011;39558;52.028;8.536;2023-02-28T00:41:28;1.88;;;0.93;;
53654;SDS011;39558;52.028;8.536;2023-02-28T00:43:54;3.08;;;1.52;;
53654;SDS011;39558;52.028;8.536;2023-02-28T00:46:20;1.67;;;0.98;;
53654;SDS011;39558;52.028;8.536;2023-02-28T00:48:46;2.65;;;0.93;;
53654;SDS011;39558;52.028;8.536;2023-02-28T00:51:12;1.95;;;0.90;;
53654;SDS011;39558;52.028;8.536;2023-02-28T00:53:38;2.92;;;1.02;;
53654;SDS011;39558;52.028;8.536;2023-02-28T00:56:04;1.80;;;1.00;;
53654;SDS011;39558;52.028;8.536;2023-02-28T00:58:31;3.60;;;1.60;;
53654;SDS011;39558;52.028;8.536;2023-02-28T01:00:57;2.30;;;1.00;;
53654;SDS011;39558;52.028;8.536;2023-02-28T01:03:23;2.97;;;1.35;;
53654;SDS011;39558;52.028;8.536;2023-02-28T01:05:49;1.52;;;0.73;;
53654;SDS011;39558;52.028;8.536;2023-02-28T01:08:15;3.75;;;1.52;;
53654;SDS011;39558;52.028;8.536;2023-02-28T01:10:41;2.72;;;1.08;;
53654;SDS011;39558;52.028;8.536;2023-02-28T01:13:07;2.60;;;1.25;;
53654;SDS011;39558;52.028;8.536;2023-02-28T01:15:33;2.10;;;1.10;;
53654;SDS011;39558;52.028;8.536;2023-02-28T01:17:59;2.35;;;0.90;;
53654;SDS011;39558;52.028;8.536;2023-02-28T01:20:25;1.98;;;0.90;;
53654;SDS011;39558;52.028;8.536;2023-02-28T01:22:51;1.75;;;1.08;;
53654;SDS011;39558;52.028;8.536;2023-02-28T01:25:16;2.20;;;1.00;;
53654;SDS011;39558;52.028;8.536;2023-02-28T01:27:42;2.60;;;1.27;;
53654;SDS011;39558;52.028;8.536;2023-02-28T01:30:08;1.77;;;0.90;;
53654;SDS011;39558;52.028;8.536;2023-02-28T01:32:35;1.80;;;0.98;;
53654;SDS011;39558;52.028;8.536;2023-02-28T01:35:01;2.28;;;0.80;;
53654;SDS011;39558;52.028;8.536;2023-02-28T01:37:27;2.28;;;1.05;;
53654;SDS011;39558;52.028;8.536;2023-02-28T01:39:53;2.42;;;1.17;;
53654;SDS011;39558;52.028;8.536;2023-02-28T01:42:19;2.00;;;0.90;;
53654;SDS011;39558;52.028;8.536;2023-02-28T01:44:59;2.92;;;1.15;;
53654;SDS011;39558;52.028;8.536;2023-02-28T01:47:27;2.33;;;1.08;;
53654;SDS011;39558;52.028;8.536;2023-02-28T01:49:54;2.38;;;1.10;;
53654;SDS011;39558;52.028;8.536;2023-02-28T01:52:21;2.60;;;1.20;;
53654;SDS011;39558;52.028;8.536;2023-02-28T01:54:54;1.63;;;0.90;;
53654;SDS011;39558;52.028;8.536;2023-02-28T01:57:23;2.88;;;1.02;;
53654;SDS011;39558;52.028;8.536;2023-02-28T01:59:57;1.95;;;1.02;;
53654;SDS011;39558;52.028;8.536;2023-02-28T02:02:23;2.70;;;1.23;;
53654;SDS011;39558;52.028;8.536;2023-02-28T02:04:51;1.63;;;0.90;;
53654;SDS011;39558;52.028;8.536;2023-02-28T02:07:18;2.60;;;1.17;;
53654;SDS011;39558;52.028;8.536;2023-02-28T02:09:44;2.03;;;0.98;;
53654;SDS011;39558;52.028;8.536;2023-02-28T02:15:05;2.25;;;1.02;;
53654;SDS011;39558;52.028;8.536;2023-02-28T02:17:41;2.70;;;1.33;;
53654;SDS011;39558;52.028;8.536;2023-02-28T02:20:14;2.05;;;1.08;;
53654;SDS011;39558;52.028;8.536;2023-02-28T02:23:01;2.80;;;1.00;;
53654;SDS011;39558;52.028;8.536;2023-02-28T02:25:39;3.60;;;1.17;;
53654;SDS011;39558;52.028;8.536;2023-02-28T02:33:23;2.35;;;1.38;;
53654;SDS011;39558;52.028;8.536;2023-02-28T02:38:28;1.55;;;0.90;;
53654;SDS011;39558;52.028;8.536;2023-02-28T02:41:04;3.03;;;1.25;;
53654;SDS011;39558;52.028;8.536;2023-02-28T02:43:33;2.70;;;0.95;;
53654;SDS011;39558;52.028;8.536;2023-02-28T02:46:05;2.33;;;1.02;;
53654;SDS011;39558;52.028;8.536;2023-02-28T02:48:34;2.38;;;1.08;;
53654;SDS011;39558;52.028;8.536;2023-02-28T02:51:04;2.45;;;1.27;;
53654;SDS011;39558;52.028;8.536;2023-02-28T02:53:38;3.70;;;1.30;;
53654;SDS011;39558;52.028;8.536;2023-02-28T02:56:07;3.15;;;1.30;;
53654;SDS011;39558;52.028;8.536;2023-02-28T02:58:35;3.00;;;1.48;;
53654;SDS011;39558;52.028;8.536;2023-02-28T03:01:06;2.30;;;1.15;;
53654;SDS011;39558;52.028;8.536;2023-02-28T03:03:34;3.00;;;1.40;;
53654;SDS011;39558;52.028;8.536;2023-02-28T03:06:01;3.78;;;1.58;;
53654;SDS011;39558;52.028;8.536;2023-02-28T03:08:28;4.68;;;1.50;;
53654;SDS011;39558;52.028;8.536;2023-02-28T03:10:58;3.22;;;1.50;;
53654;SDS011;39558;52.028;8.536;2023-02-28T03:18:45;1.60;;;1.08;;
53654;SDS011;39558;52.028;8.536;2023-02-28T03:21:22;2.40;;;1.10;;
53654;SDS011;39558;52.028;8.536;2023-02-28T03:23:54;1.98;;;1.02;;
53654;SDS011;39558;52.028;8.536;2023-02-28T03:26:23;3.33;;;1.40;;
53654;SDS011;39558;52.028;8.536;2023-02-28T03:29:02;2.08;;;1.17;;
53654;SDS011;39558;52.028;8.536;2023-02-28T03:31:38;2.55;;;1.10;;
53654;SDS011;39558;52.028;8.536;2023-02-28T03:34:17;3.17;;;1.45;;
53654;SDS011;39558;52.028;8.536;2023-02-28T03:36:46;3.80;;;1.10;;
53654;SDS011;39558;52.028;8.536;2023-02-28T03:39:17;3.00;;;1.23;;
53654;SDS011;39558;52.028;8.536;2023-02-28T03:41:45;3.13;;;1.10;;
53654;SDS011;39558;52.028;8.536;2023-02-28T03:44:16;2.70;;;1.48;;
53654;SDS011;39558;52.028;8.536;2023-02-28T03:46:48;2.35;;;1.00;;
53654;SDS011;39558;52.028;8.536;2023-02-28T03:49:40;2.88;;;1.40;;
53654;SDS011;39558;52.028;8.536;2023-02-28T03:52:03;3.28;;;1.10;;
53654;SDS011;39558;52.028;8.536;2023-02-28T03:54:33;3.55;;;1.20;;
53654;SDS011;39558;52.028;8.536;2023-02-28T03:57:10;2.55;;;1.10;;
53654;SDS011;39558;52.028;8.536;2023-02-28T03:59:45;3.00;;;1.40;;
53654;SDS011;39558;52.028;8.536;2023-02-28T04:02:12;2.00;;;1.05;;
53654;SDS011;39558;52.028;8.536;2023-02-28T04:04:38;2.33;;;1.05;;
53654;SDS011;39558;52.028;8.536;2023-02-28T04:07:13;3.72;;;1.35;;
53654;SDS011;39558;52.028;8.536;2023-02-28T04:09:39;2.70;;;1.30;;
53654;SDS011;39558;52.028;8.536;2023-02-28T04:12:05;3.13;;;1.27;;
53654;SDS011;39558;52.028;8.536;2023-02-28T04:14:31;2.30;;;1.10;;
53654;SDS011;39558;52.028;8.536;2023-02-28T04:16:57;2.10;;;1.10;;
53654;SDS011;39558;52.028;8.536;2023-02-28T04:19:23;3.15;;;1.58;;
53654;SDS011;39558;52.028;8.536;2023-02-28T04:21:50;2.35;;;1.23;;
53654;SDS011;39558;52.028;8.536;2023-02-28T04:24:17;2.85;;;1.20;;
53654;SDS011;39558;52.028;8.536;2023-02-28T04:26:44;3.03;;;1.27;;
53654;SDS011;39558;52.028;8.536;2023-02-28T04:29:11;2.85;;;1.40;;
53654;SDS011;39558;52.028;8.536;2023-02-28T04:31:37;3.78;;;1.55;;
53654;SDS011;39558;52.028;8.536;2023-02-28T04:34:03;4.00;;;1.20;;
53654;SDS011;39558;52.028;8.536;2023-02-28T04:36:29;3.58;;;1.83;;
53654;SDS011;39558;52.028;8.536;2023-02-28T04:38:55;2.58;;;1.10;;
53654;SDS011;39558;52.028;8.536;2023-02-28T04:41:22;3.58;;;1.40;;
53654;SDS011;39558;52.028;8.536;2023-02-28T04:43:48;3.08;;;1.30;;
53654;SDS011;39558;52.028;8.536;2023-02-28T04:46:14;4.28;;;1.50;;
53654;SDS011;39558;52.028;8.536;2023-02-28T04:48:40;4.63;;;1.13;;
53654;SDS011;39558;52.028;8.536;2023-02-28T04:51:10;3.13;;;1.45;;
53654;SDS011;39558;52.028;8.536;2023-02-28T04:53:37;3.08;;;1.50;;
53654;SDS011;39558;52.028;8.536;2023-02-28T04:56:03;3.17;;;1.40;;
53654;SDS011;39558;52.028;8.536;2023-02-28T04:58:29;2.90;;;1.63;;
53654;SDS011;39558;52.028;8.536;2023-02-28T05:01:01;4.18;;;1.65;;
53654;SDS011;39558;52.028;8.536;2023-02-28T05:03:27;2.75;;;1.25;;
53654;SDS011;39558;52.028;8.536;2023-02-28T05:05:53;2.63;;;1.40;;
53654;SDS011;39558;52.028;8.536;2023-02-28T05:08:19;3.17;;;1.10;;
53654;SDS011;39558;52.028;8.536;2023-02-28T05:10:45;3.30;;;1.40;;
53654;SDS011;39558;52.028;8.536;2023-02-28T05:13:11;3.92;;;1.42;;
53654;SDS011;39558;52.028;8.536;2023-02-28T05:15:37;2.92;;;1.17;;
53654;SDS011;39558;52.028;8.536;2023-02-28T05:18:03;2.80;;;1.27;;
53654;SDS011;39558;52.028;8.536;2023-02-28T05:20:29;3.20;;;1.27;;
53654;SDS011;39558;52.028;8.536;2023-02-28T05:22:55;3.13;;;1.42;;
53654;SDS011;39558;52.028;8.536;2023-02-28T05:25:22;1.70;;;0.88;;
53654;SDS011;39558;52.028;8.536;2023-02-28T05:27:48;2.95;;;1.33;;
53654;SDS011;39558;52.028;8.536;2023-02-28T05:30:14;2.85;;;1.30;;
53654;SDS011;39558;52.028;8.536;2023-02-28T05:32:40;3.22;;;1.92;;
53654;SDS011;39558;52.028;8.536;2023-02-28T05:35:10;2.83;;;1.45;;
53654;SDS011;39558;52.028;8.536;2023-02-28T05:37:37;2.95;;;1.60;;
53654;SDS011;39558;52.028;8.536;2023-02-28T05:40:03;3.17;;;1.38;;
53654;SDS011;39558;52.028;8.536;2023-02-28T05:42:36;3.65;;;1.40;;
53654;SDS011;39558;52.028;8.536;2023-02-28T05:45:02;3.40;;;1.60;;
53654;SDS011;39558;52.028;8.536;2023-02-28T05:47:28;4.28;;;1.60;;
53654;SDS011;39558;52.028;8.536;2023-02-28T05:49:54;3.38;;;1.40;;
53654;SDS011;39558;52.028;8.536;2023-02-28T05:52:20;4.80;;;2.10;;
53654;SDS011;39558;52.028;8.536;2023-02-28T05:54:46;7.10;;;1.40;;
53654;SDS011;39558;52.028;8.536;2023-02-28T05:57:12;6.55;;;1.92;;
53654;SDS011;39558;52.028;8.536;2023-02-28T05:59:38;3.17;;;1.55;;
53654;SDS011;39558;52.028;8.536;2023-02-28T06:02:05;3.17;;;1.33;;
53654;SDS011;39558;52.028;8.536;2023-02-28T06:04:30;3.75;;;1.77;;
53654;SDS011;39558;52.028;8.536;2023-02-28T06:06:56;3.50;;;1.80;;
53654;SDS011;39558;52.028;8.536;2023-02-28T06:09:22;5.95;;;1.90;;
53654;SDS011;39558;52.028;8.536;2023-02-28T06:11:48;5.10;;;1.40;;
53654;SDS011;39558;52.028;8.536;2023-02-28T06:14:15;3.63;;;1.50;;
53654;SDS011;39558;52.028;8.536;2023-02-28T06:16:42;3.13;;;1.50;;
53654;SDS011;39558;52.028;8.536;2023-02-28T06:19:08;5.82;;;1.67;;
53654;SDS011;39558;52.028;8.536;2023-02-28T06:21:34;4.32;;;1.48;;
53654;SDS011;39558;52.028;8.536;2023-02-28T06:24:01;4.72;;;1.50;;
53654;SDS011;39558;52.028;8.536;2023-02-28T06:26:27;4.63;;;1.58;;
53654;SDS011;39558;52.028;8.536;2023-02-28T06:28:53;2.53;;;1.17;;
53654;SDS011;39558;52.028;8.536;2023-02-28T06:31:19;7.20;;;1.70;;
53654;SDS011;39558;52.028;8.536;2023-02-28T06:33:46;3.17;;;1.45;;
53654;SDS011;39558;52.028;8.536;2023-02-28T06:36:13;5.00;;;1.60;;
53654;SDS011;39558;52.028;8.536;2023-02-28T06:38:39;4.18;;;2.13;;
53654;SDS011;39558;52.028;8.536;2023-02-28T06:41:06;5.22;;;1.88;;
53654;SDS011;39558;52.028;8.536;2023-02-28T06:43:33;3.97;;;1.75;;
53654;SDS011;39558;52.028;8.536;2023-02-28T06:46:00;2.85;;;1.55;;
53654;SDS011;39558;52.028;8.536;2023-02-28T06:48:26;3.45;;;1.60;;
53654;SDS011;39558;52.028;8.536;2023-02-28T06:51:00;3.63;;;1.40;;
53654;SDS011;39558;52.028;8.536;2023-02-28T06:53:26;4.13;;;1.60;;
53654;SDS011;39558;52.028;8.536;2023-02-28T06:55:52;3.72;;;1.60;;
53654;SDS011;39558;52.028;8.536;2023-02-28T06:58:18;4.35;;;1.90;;
53654;SDS011;39558;52.028;8.536;2023-02-28T07:00:44;4.05;;;2.38;;
53654;SDS011;39558;52.028;8.536;2023-02-28T07:03:11;3.05;;;1.55;;
53654;SDS011;39558;52.028;8.536;2023-02-28T07:05:37;3.67;;;1.70;;
53654;SDS011;39558;52.028;8.536;2023-02-28T07:08:03;7.47;;;1.85;;
53654;SDS011;39558;52.028;8.536;2023-02-28T07:10:30;5.05;;;2.08;;
53654;SDS011;39558;52.028;8.536;2023-02-28T07:12:57;4.13;;;1.75;;
53654;SDS011;39558;52.028;8.536;2023-02-28T07:15:23;6.28;;;2.35;;
53654;SDS011;39558;52.028;8.536;2023-02-28T07:17:49;4.05;;;1.60;;
53654;SDS011;39558;52.028;8.536;2023-02-28T07:20:15;4.82;;;1.73;;
53654;SDS011;39558;52.028;8.536;2023-02-28T07:22:41;5.85;;;1.88;;
53654;SDS011;39558;52.028;8.536;2023-02-28T07:25:07;4.45;;;1.58;;
53654;SDS011;39558;52.028;8.536;2023-02-28T07:27:33;4.07;;;1.75;;
53654;SDS011;39558;52.028;8.536;2023-02-28T07:29:59;4.25;;;1.90;;
53654;SDS011;39558;52.028;8.536;2023-02-28T07:32:26;4.70;;;2.17;;
53654;SDS011;39558;52.028;8.536;2023-02-28T07:34:53;4.25;;;1.90;;
53654;SDS011;39558;52.028;8.536;2023-02-28T07:37:19;6.13;;;1.92;;
53654;SDS011;39558;52.028;8.536;2023-02-28T07:39:47;4.03;;;1.85;;
53654;SDS011;39558;52.028;8.536;2023-02-28T07:42:12;3.75;;;2.03;;
53654;SDS011;39558;52.028;8.536;2023-02-28T07:44:39;2.80;;;1.55;;
53654;SDS011;39558;52.028;8.536;2023-02-28T07:47:11;4.53;;;1.90;;
53654;SDS011;39558;52.028;8.536;2023-02-28T07:49:37;4.35;;;2.40;;
53654;SDS011;39558;52.028;8.536;2023-02-28T07:52:04;4.90;;;1.98;;
53654;SDS011;39558;52.028;8.536;2023-02-28T07:54:30;3.80;;;1.92;;
53654;SDS011;39558;52.028;8.536;2023-02-28T07:56:56;4.03;;;1.95;;
53654;SDS011;39558;52.028;8.536;2023-02-28T07:59:22;6.65;;;2.08;;
53654;SDS011;39558;52.028;8.536;2023-02-28T08:01:48;4.15;;;2.22;;
53654;SDS011;39558;52.028;8.536;2023-02-28T08:04:15;5.13;;;2.78;;
53654;SDS011;39558;52.028;8.536;2023-02-28T08:06:41;5.65;;;1.77;;
53654;SDS011;39558;52.028;8.536;2023-02-28T08:09:07;6.70;;;2.17;;
53654;SDS011;39558;52.028;8.536;2023-02-28T08:11:33;5.20;;;2.00;;
53654;SDS011;39558;52.028;8.536;2023-02-28T08:13:59;4.72;;;1.90;;
53654;SDS011;39558;52.028;8.536;2023-02-28T08:16:24;3.72;;;1.88;;
53654;SDS011;39558;52.028;8.536;2023-02-28T08:18:51;4.43;;;2.08;;
53654;SDS011;39558;52.028;8.536;2023-02-28T08:21:17;4.93;;;2.13;;
53654;SDS011;39558;52.028;8.536;2023-02-28T08:23:43;3.42;;;1.85;;
53654;SDS011;39558;52.028;8.536;2023-02-28T08:26:11;5.32;;;2.40;;
53654;SDS011;39558;52.028;8.536;2023-02-28T08:28:37;4.20;;;1.73;;
53654;SDS011;39558;52.028;8.536;2023-02-28T08:31:08;4.63;;;2.50;;
53654;SDS011;39558;52.028;8.536;2023-02-28T08:33:34;4.97;;;2.45;;
53654;SDS011;39558;52.028;8.536;2023-02-28T08:36:00;4.53;;;2.10;;
53654;SDS011;39558;52.028;8.536;2023-02-28T08:38:26;5.63;;;2.47;;
53654;SDS011;39558;52.028;8.536;2023-02-28T08:40:59;4.72;;;2.03;;
53654;SDS011;39558;52.028;8.536;2023-02-28T08:43:26;5.43;;;1.85;;
53654;SDS011;39558;52.028;8.536;2023-02-28T08:45:53;3.92;;;1.70;;
53654;SDS011;39558;52.028;8.536;2023-02-28T08:48:21;5.72;;;1.90;;
53654;SDS011;39558;52.028;8.536;2023-02-28T08:51:02;3.75;;;1.90;;
53654;SDS011;39558;52.028;8.536;2023-02-28T08:53:28;6.70;;;2.00;;
53654;SDS011;39558;52.028;8.536;2023-02-28T08:56:28;4.18;;;2.20;;
53654;SDS011;39558;52.028;8.536;2023-02-28T08:58:47;5.13;;;2.20;;
53654;SDS011;39558;52.028;8.536;2023-02-28T09:01:23;3.88;;;1.90;;
53654;SDS011;39558;52.028;8.536;2023-02-28T09:03:50;3.63;;;1.90;;
53654;SDS011;39558;52.028;8.536;2023-02-28T09:06:16;4.20;;;2.00;;
53654;SDS011;39558;52.028;8.536;2023-02-28T09:08:43;3.50;;;1.80;;
53654;SDS011;39558;52.028;8.536;2023-02-28T09:11:10;4.18;;;1.67;;
53654;SDS011;39558;52.028;8.536;2023-02-28T09:13:38;3.35;;;1.88;;
53654;SDS011;39558;52.028;8.536;2023-02-28T09:16:05;4.07;;;2.00;;
53654;SDS011;39558;52.028;8.536;2023-02-28T09:18:31;5.35;;;1.95;;
53654;SDS011;39558;52.028;8.536;2023-02-28T09:20:59;5.30;;;1.80;;
53654;SDS011;39558;52.028;8.536;2023-02-28T09:23:25;3.47;;;1.80;;
53654;SDS011;39558;52.028;8.536;2023-02-28T09:25:51;3.30;;;1.40;;
53654;SDS011;39558;52.028;8.536;2023-02-28T09:28:17;4.10;;;2.00;;
53654;SDS011;39558;52.028;8.536;2023-02-28T09:30:44;3.50;;;1.40;;
53654;SDS011;39558;52.028;8.536;2023-02-28T09:33:10;3.80;;;1.63;;
53654;SDS011;39558;52.028;8.536;2023-02-28T09:35:36;3.78;;;1.80;;
53654;SDS011;39558;52.028;8.536;2023-02-28T09:38:03;4.82;;;1.80;;
53654;SDS011;39558;52.028;8.536;2023-02-28T09:40:29;2.95;;;1.25;;
53654;SDS011;39558;52.028;8.536;2023-02-28T09:42:56;2.53;;;1.30;;
53654;SDS011;39558;52.028;8.536;2023-02-28T09:45:24;4.05;;;1.80;;
53654;SDS011;39558;52.028;8.536;2023-02-28T09:47:50;2.60;;;1.35;;
53654;SDS011;39558;52.028;8.536;2023-02-28T09:50:21;3.13;;;1.48;;
53654;SDS011;39558;52.028;8.536;2023-02-28T09:52:49;3.95;;;1.80;;
53654;SDS011;39558;52.028;8.536;2023-02-28T09:55:22;3.65;;;1.48;;
53654;SDS011;39558;52.028;8.536;2023-02-28T09:57:50;2.50;;;1.48;;
53654;SDS011;39558;52.028;8.536;2023-02-28T10:00:29;3.30;;;1.27;;
53654;SDS011;39558;52.028;8.536;2023-02-28T10:05:41;4.97;;;1.55;;
53654;SDS011;39558;52.028;8.536;2023-02-28T10:08:13;3.53;;;1.40;;
53654;SDS011;39558;52.028;8.536;2023-02-28T10:10:41;2.67;;;1.00;;
53654;SDS011;39558;52.028;8.536;2023-02-28T10:13:19;3.40;;;1.30;;
53654;SDS011;39558;52.028;8.536;2023-02-28T10:15:48;2.77;;;1.30;;
53654;SDS011;39558;52.028;8.536;2023-02-28T10:18:20;5.20;;;1.25;;
53654;SDS011;39558;52.028;8.536;2023-02-28T10:20:47;2.40;;;1.10;;
53654;SDS011;39558;52.028;8.536;2023-02-28T10:23:27;3.45;;;1.30;;
53654;SDS011;39558;52.028;8.536;2023-02-28T10:25:55;3.30;;;1.58;;
53654;SDS011;39558;52.028;8.536;2023-02-28T10:28:24;2.45;;;1.15;;
53654;SDS011;39558;52.028;8.536;2023-02-28T10:30:51;3.55;;;1.30;;
53654;SDS011;39558;52.028;8.536;2023-02-28T10:33:22;2.80;;;0.98;;
53654;SDS011;39558;52.028;8.536;2023-02-28T10:35:50;2.90;;;1.55;;
53654;SDS011;39558;52.028;8.536;2023-02-28T10:38:21;3.13;;;1.10;;
53654;SDS011;39558;52.028;8.536;2023-02-28T10:40:47;2.47;;;1.20;;
53654;SDS011;39558;52.028;8.536;2023-02-28T10:45:40;2.83;;;1.10;;
53654;SDS011;39558;52.028;8.536;2023-02-28T10:55:40;2.55;;;0.80;;
53654;SDS011;39558;52.028;8.536;2023-02-28T10:58:26;2.35;;;1.30;;
53654;SDS011;39558;52.028;8.536;2023-02-28T11:00:52;1.92;;;1.00;;
53654;SDS011;39558;52.028;8.536;2023-02-28T11:03:34;2.50;;;1.15;;
53654;SDS011;39558;52.028;8.536;2023-02-28T11:06:05;2.03;;;1.02;;
53654;SDS011;39558;52.028;8.536;2023-02-28T11:08:31;3.72;;;1.10;;
53654;SDS011;39558;52.028;8.536;2023-02-28T11:10:58;5.45;;;1.17;;
53654;SDS011;39558;52.028;8.536;2023-02-28T11:13:27;3.10;;;1.20;;
53654;SDS011;39558;52.028;8.536;2023-02-28T11:15:54;3.97;;;0.80;;
53654;SDS011;39558;52.028;8.536;2023-02-28T11:20:50;2.72;;;1.10;;
53654;SDS011;39558;52.028;8.536;2023-02-28T11:25:47;3.03;;;0.70;;
53654;SDS011;39558;52.028;8.536;2023-02-28T11:28:23;2.50;;;0.90;;
53654;SDS011;39558;52.028;8.536;2023-02-28T11:30:59;1.75;;;0.70;;
53654;SDS011;39558;52.028;8.536;2023-02-28T11:35:52;3.50;;;1.23;;
53654;SDS011;39558;52.028;8.536;2023-02-28T11:38:20;2.05;;;0.95;;
53654;SDS011;39558;52.028;8.536;2023-02-28T11:43:30;2.22;;;0.80;;
53654;SDS011;39558;52.028;8.536;2023-02-28T11:46:24;2.28;;;0.93;;
53654;SDS011;39558;52.028;8.536;2023-02-28T11:48:58;2.75;;;0.60;;
53654;SDS011;39558;52.028;8.536;2023-02-28T11:51:28;1.80;;;0.80;;
53654;SDS011;39558;52.028;8.536;2023-02-28T11:54:04;1.42;;;0.50;;
53654;SDS011;39558;52.028;8.536;2023-02-28T12:01:46;5.15;;;2.00;;
53654;SDS011;39558;52.028;8.536;2023-02-28T12:09:53;1.63;;;0.80;;
53654;SDS011;39558;52.028;8.536;2023-02-28T12:17:44;1.75;;;0.80;;
53654;SDS011;39558;52.028;8.536;2023-02-28T12:20:33;1.10;;;0.63;;
53654;SDS011;39558;52.028;8.536;2023-02-28T12:23:04;1.67;;;0.80;;
53654;SDS011;39558;52.028;8.536;2023-02-28T12:25:43;2.22;;;0.80;;
53654;SDS011;39558;52.028;8.536;2023-02-28T12:28:14;1.75;;;0.73;;
53654;SDS011;39558;52.028;8.536;2023-02-28T12:30:46;2.00;;;0.80;;
53654;SDS011;39558;52.028;8.536;2023-02-28T12:33:16;2.90;;;1.13;;
53654;SDS011;39558;52.028;8.536;2023-02-28T12:35:46;1.90;;;0.90;;
53654;SDS011;39558;52.028;8.536;2023-02-28T12:38:14;1.33;;;0.70;;
53654;SDS011;39558;52.028;8.536;2023-02-28T12:40:47;1.70;;;1.00;;
53654;SDS011;39558;52.028;8.536;2023-02-28T12:43:15;3.85;;;0.60;;
53654;SDS011;39558;52.028;8.536;2023-02-28T12:45:50;2.05;;;0.63;;
53654;SDS011;39558;52.028;8.536;2023-02-28T12:48:20;2.50;;;1.02;;
53654;SDS011;39558;52.028;8.536;2023-02-28T12:50:48;3.13;;;1.35;;
53654;SDS011;39558;52.028;8.536;2023-02-28T12:53:20;2.17;;;0.80;;
53654;SDS011;39558;52.028;8.536;2023-02-28T12:58:36;1.23;;;0.55;;
53654;SDS011;39558;52.028;8.536;2023-02-28T13:04:04;1.60;;;0.80;;
53654;SDS011;39558;52.028;8.536;2023-02-28T13:06:38;1.23;;;0.60;;
53654;SDS011;39558;52.028;8.536;2023-02-28T13:09:11;1.67;;;0.75;;
53654;SDS011;39558;52.028;8.536;2023-02-28T13:11:46;1.80;;;0.73;;
53654;SDS011;39558;52.028;8.536;2023-02-28T13:14:20;0.90;;;0.55;;
53654;SDS011;39558;52.028;8.536;2023-02-28T13:17:09;2.00;;;0.90;;
53654;SDS011;39558;52.028;8.536;2023-02-28T13:19:41;1.25;;;0.60;;
53654;SDS011;39558;52.028;8.536;2023-02-28T13:22:19;1.88;;;0.85;;
53654;SDS011;39558;52.028;8.536;2023-02-28T13:29:59;1.98;;;0.85;;
53654;SDS011;39558;52.028;8.536;2023-02-28T13:32:28;2.28;;;0.77;;
53654;SDS011;39558;52.028;8.536;2023-02-28T13:47:29;1.65;;;0.80;;
53654;SDS011;39558;52.028;8.536;2023-02-28T13:53:27;2.20;;;0.70;;
53654;SDS011;39558;52.028;8.536;2023-02-28T13:55:35;1.80;;;0.80;;
53654;SDS011;39558;52.028;8.536;2023-02-28T14:00:41;1.75;;;0.65;;
53654;SDS011;39558;52.028;8.536;2023-02-28T14:03:12;2.30;;;1.02;;
53654;SDS011;39558;52.028;8.536;2023-02-28T14:05:43;2.42;;;0.77;;
53654;SDS011;39558;52.028;8.536;2023-02-28T14:08:16;2.15;;;0.93;;
53654;SDS011;39558;52.028;8.536;2023-02-28T14:10:44;1.80;;;0.90;;
53654;SDS011;39558;52.028;8.536;2023-02-28T14:15:56;1.63;;;0.70;;
53654;SDS011;39558;52.028;8.536;2023-02-28T14:18:24;2.63;;;0.95;;
53654;SDS011;39558;52.028;8.536;2023-02-28T14:20:52;1.83;;;0.77;;
53654;SDS011;39558;52.028;8.536;2023-02-28T14:26:12;2.45;;;0.77;;
53654;SDS011;39558;52.028;8.536;2023-02-28T14:29:02;1.13;;;0.60;;
53654;SDS011;39558;52.028;8.536;2023-02-28T14:31:37;1.58;;;0.90;;
53654;SDS011;39558;52.028;8.536;2023-02-28T14:34:13;2.28;;;1.00;;
53654;SDS011;39558;52.028;8.536;2023-02-28T14:36:43;2.15;;;0.80;;
53654;SDS011;39558;52.028;8.536;2023-02-28T14:39:13;2.22;;;0.90;;
53654;SDS011;39558;52.028;8.536;2023-02-28T14:41:50;1.80;;;0.82;;
53654;SDS011;39558;52.028;8.536;2023-02-28T14:44:18;1.75;;;0.75;;
53654;SDS011;39558;52.028;8.536;2023-02-28T14:46:45;1.88;;;0.90;;
53654;SDS011;39558;52.028;8.536;2023-02-28T14:49:19;1.52;;;0.70;;
53654;SDS011;39558;52.028;8.536;2023-02-28T14:51:46;1.45;;;0.70;;
53654;SDS011;39558;52.028;8.536;2023-02-28T14:54:16;1.83;;;1.25;;
53654;SDS011;39558;52.028;8.536;2023-02-28T14:56:49;1.40;;;0.60;;
53654;SDS011;39558;52.028;8.536;2023-02-28T14:59:24;2.30;;;0.77;;
53654;SDS011;39558;52.028;8.536;2023-02-28T15:01:51;2.47;;;1.00;;
53654;SDS011;39558;52.028;8.536;2023-02-28T15:04:35;1.42;;;0.82;;
53654;SDS011;39558;52.028;8.536;2023-02-28T15:07:13;2.03;;;0.70;;
53654;SDS011;39558;52.028;8.536;2023-02-28T15:09:40;2.55;;;0.70;;
53654;SDS011;39558;52.028;8.536;2023-02-28T15:12:06;2.10;;;0.82;;
53654;SDS011;39558;52.028;8.536;2023-02-28T15:14:33;0.95;;;0.50;;
53654;SDS011;39558;52.028;8.536;2023-02-28T15:17:02;1.67;;;0.70;;
53654;SDS011;39558;52.028;8.536;2023-02-28T15:19:32;3.30;;;1.00;;
53654;SDS011;39558;52.028;8.536;2023-02-28T15:22:00;2.13;;;0.77;;
53654;SDS011;39558;52.028;8.536;2023-02-28T15:24:37;2.00;;;0.70;;
53654;SDS011;39558;52.028;8.536;2023-02-28T15:27:11;1.48;;;0.70;;
53654;SDS011;39558;52.028;8.536;2023-02-28T15:29:48;1.83;;;0.93;;
53654;SDS011;39558;52.028;8.536;2023-02-28T15:34:57;1.65;;;0.90;;
53654;SDS011;39558;52.028;8.536;2023-02-28T15:40:17;2.38;;;0.80;;
53654;SDS011;39558;52.028;8.536;2023-02-28T15:42:58;1.52;;;0.70;;
53654;SDS011;39558;52.028;8.536;2023-02-28T15:45:26;1.50;;;0.63;;
53654;SDS011;39558;52.028;8.536;2023-02-28T15:47:53;1.77;;;0.88;;
53654;SDS011;39558;52.028;8.536;2023-02-28T15:50:19;1.67;;;0.70;;
53654;SDS011;39558;52.028;8.536;2023-02-28T15:52:45;1.67;;;0.70;;
53654;SDS011;39558;52.028;8.536;2023-02-28T15:55:18;1.73;;;0.90;;
53654;SDS011;39558;52.028;8.536;2023-02-28T15:57:45;2.15;;;0.82;;
53654;SDS011;39558;52.028;8.536;2023-02-28T16:00:13;1.50;;;0.73;;
53654;SDS011;39558;52.028;8.536;2023-02-28T16:02:40;2.88;;;0.90;;
53654;SDS011;39558;52.028;8.536;2023-02-28T16:07:32;0.93;;;0.50;;
53654;SDS011;39558;52.028;8.536;2023-02-28T16:09:58;2.78;;;0.75;;
53654;SDS011;39558;52.028;8.536;2023-02-28T16:12:26;2.60;;;1.35;;
53654;SDS011;39558;52.028;8.536;2023-02-28T16:14:52;2.63;;;0.88;;
53654;SDS011;39558;52.028;8.536;2023-02-28T16:17:20;1.52;;;0.68;;
53654;SDS011;39558;52.028;8.536;2023-02-28T16:19:47;3.25;;;0.82;;
53654;SDS011;39558;52.028;8.536;2023-02-28T16:22:13;1.67;;;0.70;;
53654;SDS011;39558;52.028;8.536;2023-02-28T16:24:39;2.25;;;1.05;;
53654;SDS011;39558;52.028;8.536;2023-02-28T16:27:05;3.40;;;0.80;;
53654;SDS011;39558;52.028;8.536;2023-02-28T16:29:35;1.83;;;0.90;;
53654;SDS011;39558;52.028;8.536;2023-02-28T16:32:01;2.38;;;0.82;;
53654;SDS011;39558;52.028;8.536;2023-02-28T16:34:30;2.22;;;0.82;;
53654;SDS011;39558;52.028;8.536;2023-02-28T16:36:55;3.03;;;0.98;;